Time;durP1;ratioP1;P1;durP2;ratioP2;P2;SDS_P1;SDS_P2;PMS_P1;PMS_P2;Temp;Humidity;BMP_temperature;BMP_pressure;BME280_temperature;BME280_humidity;BME280_pressure;Samples;Min_cycle;Max_cycle;Signal;HPM_P1;HPM_P2
2022/05/21 00:00:13;;;;;;;46.25;27.58;;;;;;;;;;5078683;28;20230;-73
2022/05/21 00:02:39;;;;;;;46.53;28.17;;;;;;;;;;5077763;28;20024;-72
2022/05/21 00:05:05;;;;;;;38.67;26.65;;;;;;;;;;5078268;28;20143;-72
2022/05/21 00:07:31;;;;;;;45.90;27.05;;;;;;;;;;5078785;28;20032;-71
2022/05/21 00:09:58;;;;;;;35.97;25.77;;;;;;;;;;5075868;28;20063;-72
2022/05/21 00:12:24;;;;;;;45.80;26.88;;;;;;;;;;5079820;28;20031;-70
2022/05/21 00:14:52;;;;;;;39.42;26.13;;;;;;;;;;5081372;28;20044;-71
2022/05/21 00:17:18;;;;;;;37.00;25.52;;;;;;;;;;5081345;28;20536;-73
2022/05/21 00:19:44;;;;;;;35.85;24.42;;;;;;;;;;5086693;28;20560;-73
2022/05/21 00:22:10;;;;;;;35.88;24.50;;;;;;;;;;5081273;28;20119;-73
2022/05/21 00:24:36;;;;;;;40.17;25.75;;;;;;;;;;5082278;28;20060;-71
2022/05/21 00:27:03;;;;;;;43.30;26.50;;;;;;;;;;5081150;28;20040;-72
2022/05/21 00:29:29;;;;;;;36.60;25.27;;;;;;;;;;5085130;28;20048;-71
2022/05/21 00:31:55;;;;;;;40.40;24.55;;;;;;;;;;5083661;28;20047;-71
2022/05/21 00:34:21;;;;;;;43.58;25.48;;;;;;;;;;5079892;28;20131;-72
2022/05/21 00:36:47;;;;;;;41.65;24.50;;;;;;;;;;5077041;28;20120;-72
2022/05/21 00:39:13;;;;;;;33.55;23.40;;;;;;;;;;5076778;28;20025;-72
2022/05/21 00:41:40;;;;;;;36.55;22.58;;;;;;;;;;5081354;28;20029;-73
2022/05/21 00:44:06;;;;;;;34.33;23.20;;;;;;;;;;5082558;28;20025;-72
2022/05/21 00:46:40;;;;;;;35.10;21.90;;;;;;;;;;5079390;28;20571;-72
2022/05/21 00:49:11;;;;;;;34.97;22.45;;;;;;;;;;5083570;28;20028;-72
2022/05/21 00:51:37;;;;;;;;;;;;;;;;;;5082907;28;20034;-72
2022/05/21 00:54:05;;;;;;;38.55;21.33;;;;;;;;;;5082320;28;19915;-72
2022/05/21 00:56:34;;;;;;;38.45;20.55;;;;;;;;;;5082515;28;20032;-71
2022/05/21 01:01:48;;;;;;;35.33;19.33;;;;;;;;;;5083296;28;20132;-72
2022/05/21 01:04:15;;;;;;;34.05;19.38;;;;;;;;;;5079315;28;20519;-71
2022/05/21 01:06:41;;;;;;;35.83;18.55;;;;;;;;;;5086063;28;20024;-72
2022/05/21 01:09:07;;;;;;;33.60;18.70;;;;;;;;;;5084686;28;20099;-72
2022/05/21 01:11:34;;;;;;;31.95;18.13;;;;;;;;;;5081182;28;20036;-71
2022/05/21 01:14:00;;;;;;;35.13;18.83;;;;;;;;;;5077041;28;20044;-72
2022/05/21 01:16:27;;;;;;;39.47;18.05;;;;;;;;;;5079699;28;20044;-71
2022/05/21 01:18:53;;;;;;;35.47;18.55;;;;;;;;;;5081800;28;20055;-72
2022/05/21 01:21:19;;;;;;;32.60;17.40;;;;;;;;;;5080048;28;20052;-72
2022/05/21 01:23:46;;;;;;;35.85;17.75;;;;;;;;;;5080795;28;20035;-74
2022/05/21 01:26:16;;;;;;;30.45;16.83;;;;;;;;;;5079679;28;20040;-73
2022/05/21 01:28:42;;;;;;;35.00;17.98;;;;;;;;;;5084399;28;20035;-74
2022/05/21 01:31:08;;;;;;;28.98;17.13;;;;;;;;;;5082863;28;20055;-73
2022/05/21 01:33:36;;;;;;;36.60;18.25;;;;;;;;;;5081333;28;20036;-70
2022/05/21 01:36:03;;;;;;;36.05;17.08;;;;;;;;;;5081458;28;20102;-72
2022/05/21 01:38:30;;;;;;;31.58;17.25;;;;;;;;;;5079326;28;20493;-71
2022/05/21 01:40:57;;;;;;;38.35;18.30;;;;;;;;;;5082776;28;20104;-73
2022/05/21 01:46:08;;;;;;;38.92;17.75;;;;;;;;;;5079894;28;20051;-71
2022/05/21 01:48:34;;;;;;;39.30;16.95;;;;;;;;;;5081373;28;20089;-71
2022/05/21 01:51:00;;;;;;;41.85;19.23;;;;;;;;;;5081648;28;20028;-71
2022/05/21 01:53:27;;;;;;;41.90;18.92;;;;;;;;;;5082290;28;20035;-72
2022/05/21 01:55:53;;;;;;;34.47;17.45;;;;;;;;;;5080563;28;20524;-73
2022/05/21 01:58:20;;;;;;;35.63;17.30;;;;;;;;;;5080630;28;20031;-72
2022/05/21 02:00:46;;;;;;;39.85;17.65;;;;;;;;;;5080701;28;20028;-73
2022/05/21 02:03:13;;;;;;;38.33;15.38;;;;;;;;;;5078503;28;20028;-72
2022/05/21 02:05:39;;;;;;;37.78;14.05;;;;;;;;;;5078982;28;20509;-74
2022/05/21 02:08:06;;;;;;;43.00;12.57;;;;;;;;;;5062761;28;20028;-73
2022/05/21 02:10:32;;;;;;;41.55;13.07;;;;;;;;;;5080389;28;20071;-73
2022/05/21 02:12:58;;;;;;;34.15;12.68;;;;;;;;;;5081864;28;20035;-73
2022/05/21 02:15:25;;;;;;;34.17;9.10;;;;;;;;;;5080806;28;20036;-73
2022/05/21 02:17:51;;;;;;;32.17;8.05;;;;;;;;;;5077061;28;20035;-72
2022/05/21 02:20:17;;;;;;;35.63;8.25;;;;;;;;;;5081768;28;20039;-71
2022/05/21 02:22:43;;;;;;;25.30;7.43;;;;;;;;;;5082224;28;20032;-71
2022/05/21 02:25:09;;;;;;;33.13;7.57;;;;;;;;;;5083089;28;20039;-73
2022/05/21 02:27:35;;;;;;;30.63;8.10;;;;;;;;;;5083183;28;20115;-73
2022/05/21 02:30:02;;;;;;;34.75;7.32;;;;;;;;;;5083279;28;20040;-73
2022/05/21 02:32:28;;;;;;;33.45;7.13;;;;;;;;;;5083986;28;20453;-73
2022/05/21 02:34:54;;;;;;;34.10;6.95;;;;;;;;;;5083107;28;20055;-74
2022/05/21 02:40:05;;;;;;;29.00;6.35;;;;;;;;;;5079479;28;20110;-73
2022/05/21 02:42:43;;;;;;;39.00;7.72;;;;;;;;;;5077024;28;20052;-75
2022/05/21 02:45:14;;;;;;;29.90;7.35;;;;;;;;;;5075256;28;20196;-72
2022/05/21 02:47:40;;;;;;;39.75;6.82;;;;;;;;;;5078895;28;20477;-72
2022/05/21 02:50:07;;;;;;;36.97;8.20;;;;;;;;;;5080227;28;20093;-72
2022/05/21 02:52:33;;;;;;;31.70;7.22;;;;;;;;;;5074217;28;20192;-73
2022/05/21 02:54:59;;;;;;;27.63;6.55;;;;;;;;;;5076021;28;20028;-73
2022/05/21 02:57:25;;;;;;;39.08;6.07;;;;;;;;;;5073690;28;20032;-72
2022/05/21 02:59:52;;;;;;;36.47;6.82;;;;;;;;;;5079688;28;20441;-72
2022/05/21 03:02:18;;;;;;;30.60;6.68;;;;;;;;;;5081041;28;20497;-73
2022/05/21 03:04:44;;;;;;;35.42;6.88;;;;;;;;;;5077102;28;20023;-72
2022/05/21 03:07:11;;;;;;;29.83;7.07;;;;;;;;;;5080407;28;20028;-72
2022/05/21 03:12:22;;;;;;;29.83;6.10;;;;;;;;;;5080705;28;20512;-73
2022/05/21 03:14:48;;;;;;;30.45;6.82;;;;;;;;;;5084019;28;20104;-72
2022/05/21 03:17:14;;;;;;;33.65;6.55;;;;;;;;;;5079855;28;20123;-72
2022/05/21 03:19:40;;;;;;;28.60;7.13;;;;;;;;;;5080980;28;20062;-72
2022/05/21 03:22:06;;;;;;;28.42;7.03;;;;;;;;;;5077481;28;20028;-72
2022/05/21 03:24:32;;;;;;;34.70;5.65;;;;;;;;;;5080868;28;20497;-73
2022/05/21 03:26:58;;;;;;;40.92;8.27;;;;;;;;;;5080917;28;20516;-73
2022/05/21 03:29:25;;;;;;;24.83;5.97;;;;;;;;;;5079050;28;20028;-73
2022/05/21 03:31:51;;;;;;;31.98;6.53;;;;;;;;;;5082400;28;20028;-73
2022/05/21 03:34:18;;;;;;;32.60;6.25;;;;;;;;;;5085412;28;20027;-73
2022/05/21 03:36:44;;;;;;;36.85;7.15;;;;;;;;;;5079718;28;20545;-73
2022/05/21 03:39:10;;;;;;;39.03;6.45;;;;;;;;;;5082364;28;20058;-73
2022/05/21 03:41:36;;;;;;;30.08;6.25;;;;;;;;;;5081705;28;20050;-73
2022/05/21 03:44:02;;;;;;;34.22;6.43;;;;;;;;;;5079473;28;20085;-72
2022/05/21 03:46:28;;;;;;;34.03;7.35;;;;;;;;;;5082013;28;20028;-72
2022/05/21 03:48:54;;;;;;;36.00;6.43;;;;;;;;;;5074584;28;20610;-74
2022/05/21 03:51:20;;;;;;;32.13;6.47;;;;;;;;;;5080353;28;20103;-72
2022/05/21 03:53:46;;;;;;;40.28;6.25;;;;;;;;;;5077244;28;20470;-71
2022/05/21 03:56:12;;;;;;;32.42;6.63;;;;;;;;;;5077513;28;20035;-72
2022/05/21 03:58:38;;;;;;;28.13;5.43;;;;;;;;;;5081019;28;20058;-71
2022/05/21 04:01:05;;;;;;;31.80;5.97;;;;;;;;;;5078116;28;20071;-72
2022/05/21 04:03:33;;;;;;;35.75;5.97;;;;;;;;;;5078461;28;20449;-72
2022/05/21 04:05:59;;;;;;;30.95;6.05;;;;;;;;;;5078060;28;20069;-73
2022/05/21 04:08:25;;;;;;;22.25;5.18;;;;;;;;;;5081535;28;20028;-73
2022/05/21 04:10:51;;;;;;;42.55;6.38;;;;;;;;;;5081454;28;20500;-75
2022/05/21 04:13:18;;;;;;;32.53;7.00;;;;;;;;;;5082005;28;20066;-73
2022/05/21 04:15:45;;;;;;;26.95;4.93;;;;;;;;;;5079207;28;20024;-72
2022/05/21 04:18:11;;;;;;;36.92;6.18;;;;;;;;;;5078575;28;20032;-71
2022/05/21 04:20:37;;;;;;;25.80;5.13;;;;;;;;;;5074943;28;20170;-71
2022/05/21 04:23:03;;;;;;;35.38;5.65;;;;;;;;;;5077655;28;20540;-72
2022/05/21 04:25:30;;;;;;;32.47;5.40;;;;;;;;;;5081608;28;20036;-73
2022/05/21 04:27:56;;;;;;;32.63;5.18;;;;;;;;;;5082146;28;20111;-73
2022/05/21 04:30:25;;;;;;;24.92;5.03;;;;;;;;;;5078597;28;20591;-72
2022/05/21 04:32:52;;;;;;;28.27;4.90;;;;;;;;;;5081631;28;20024;-75
2022/05/21 04:35:18;;;;;;;24.85;4.15;;;;;;;;;;5077249;28;20056;-72
2022/05/21 04:37:45;;;;;;;31.33;4.80;;;;;;;;;;5077569;28;20435;-74
2022/05/21 04:40:13;;;;;;;29.30;4.13;;;;;;;;;;5077465;28;20036;-74
2022/05/21 04:42:39;;;;;;;23.20;4.88;;;;;;;;;;5079624;28;20035;-73
2022/05/21 04:45:05;;;;;;;22.08;4.53;;;;;;;;;;5079315;28;21581;-73
2022/05/21 04:47:31;;;;;;;24.60;4.32;;;;;;;;;;5080621;28;20028;-74
2022/05/21 04:49:57;;;;;;;22.30;4.20;;;;;;;;;;5062063;28;20130;-73
2022/05/21 04:52:23;;;;;;;23.40;4.22;;;;;;;;;;5080018;28;20028;-73
2022/05/21 04:54:49;;;;;;;24.50;4.28;;;;;;;;;;5079665;28;20043;-72
2022/05/21 04:57:15;;;;;;;28.35;5.10;;;;;;;;;;5077611;28;20024;-74
2022/05/21 04:59:41;;;;;;;24.67;4.80;;;;;;;;;;5080969;28;20050;-72
2022/05/21 05:02:08;;;;;;;22.80;4.13;;;;;;;;;;5080784;28;20429;-72
2022/05/21 05:04:34;;;;;;;17.10;4.40;;;;;;;;;;5084566;28;20093;-72
2022/05/21 05:07:05;;;;;;;29.92;6.32;;;;;;;;;;5077998;28;20039;-72
2022/05/21 05:09:31;;;;;;;23.67;3.97;;;;;;;;;;5080967;28;20146;-72
2022/05/21 05:11:58;;;;;;;19.17;3.55;;;;;;;;;;5082211;28;20032;-72
2022/05/21 05:14:24;;;;;;;24.58;4.00;;;;;;;;;;5080324;28;20173;-72
2022/05/21 05:16:50;;;;;;;24.63;3.58;;;;;;;;;;5080243;28;20116;-72
2022/05/21 05:19:16;;;;;;;31.23;3.95;;;;;;;;;;5082763;28;20561;-71
2022/05/21 05:21:42;;;;;;;28.00;5.05;;;;;;;;;;5081523;28;20474;-72
2022/05/21 05:24:08;;;;;;;15.70;3.28;;;;;;;;;;5082426;28;20024;-72
2022/05/21 05:26:34;;;;;;;20.52;3.85;;;;;;;;;;5084746;28;21400;-74
2022/05/21 05:29:00;;;;;;;17.40;3.83;;;;;;;;;;5082229;28;20115;-71
2022/05/21 05:31:26;;;;;;;23.10;4.47;;;;;;;;;;5080534;28;20089;-72
2022/05/21 05:33:52;;;;;;;20.23;3.83;;;;;;;;;;5083996;28;20043;-73
2022/05/21 05:36:18;;;;;;;14.60;3.55;;;;;;;;;;5078372;28;20039;-71
2022/05/21 05:38:44;;;;;;;21.67;4.15;;;;;;;;;;5078617;28;20032;-72
2022/05/21 05:41:10;;;;;;;16.98;3.70;;;;;;;;;;5080373;28;20020;-73
2022/05/21 05:43:36;;;;;;;29.85;4.03;;;;;;;;;;5081828;28;20499;-73
2022/05/21 05:46:02;;;;;;;19.33;3.47;;;;;;;;;;5082073;28;20081;-72
2022/05/21 05:48:29;;;;;;;24.05;4.10;;;;;;;;;;5083717;28;20076;-71
2022/05/21 05:50:56;;;;;;;20.50;3.97;;;;;;;;;;5081968;28;20039;-71
2022/05/21 05:53:22;;;;;;;21.38;3.75;;;;;;;;;;5082089;28;20329;-72
2022/05/21 05:55:48;;;;;;;22.42;4.43;;;;;;;;;;5081527;28;20134;-72
2022/05/21 06:00:59;;;;;;;19.58;3.63;;;;;;;;;;5084904;28;20130;-71
2022/05/21 06:03:26;;;;;;;22.27;3.80;;;;;;;;;;5086927;28;20111;-72
2022/05/21 06:05:53;;;;;;;18.52;3.33;;;;;;;;;;5082033;28;20241;-72
2022/05/21 06:08:19;;;;;;;23.20;3.95;;;;;;;;;;5081997;28;20493;-72
2022/05/21 06:10:48;;;;;;;20.88;3.63;;;;;;;;;;5084107;28;20112;-72
2022/05/21 06:13:14;;;;;;;17.05;3.33;;;;;;;;;;5083564;28;20032;-73
2022/05/21 06:15:41;;;;;;;23.13;4.07;;;;;;;;;;5079321;28;20577;-73
2022/05/21 06:18:12;;;;;;;18.02;3.53;;;;;;;;;;5080799;28;20413;-73
2022/05/21 06:20:38;;;;;;;21.55;4.00;;;;;;;;;;5081770;28;20369;-73
2022/05/21 06:23:04;;;;;;;23.17;3.85;;;;;;;;;;5083118;28;20049;-72
2022/05/21 06:25:33;;;;;;;18.55;3.30;;;;;;;;;;5084681;28;20035;-72
2022/05/21 06:27:59;;;;;;;20.60;3.63;;;;;;;;;;5082350;28;20040;-69
2022/05/21 06:30:26;;;;;;;19.50;3.20;;;;;;;;;;5085364;28;20032;-70
2022/05/21 06:32:53;;;;;;;22.85;3.58;;;;;;;;;;5081440;28;20571;-67
2022/05/21 06:35:19;;;;;;;18.40;3.83;;;;;;;;;;5086882;28;20512;-67
2022/05/21 06:37:45;;;;;;;27.70;3.90;;;;;;;;;;5084897;28;20507;-69
2022/05/21 06:40:12;;;;;;;15.27;3.13;;;;;;;;;;5084624;28;20067;-69
2022/05/21 06:42:38;;;;;;;14.85;3.25;;;;;;;;;;5079635;28;20028;-68
2022/05/21 06:45:04;;;;;;;15.73;3.03;;;;;;;;;;5085589;28;20097;-67
2022/05/21 06:47:30;;;;;;;18.67;4.18;;;;;;;;;;5087088;28;20043;-67
2022/05/21 06:49:57;;;;;;;15.80;3.00;;;;;;;;;;5089184;28;20393;-68
2022/05/21 06:52:28;;;;;;;21.33;4.03;;;;;;;;;;5087527;28;20032;-69
2022/05/21 06:54:54;;;;;;;17.40;3.15;;;;;;;;;;5088206;28;20565;-69
2022/05/21 06:57:26;;;;;;;21.05;2.95;;;;;;;;;;5087181;28;20032;-69
2022/05/21 06:59:52;;;;;;;17.80;3.92;;;;;;;;;;5084760;28;20040;-69
2022/05/21 07:02:18;;;;;;;24.02;4.57;;;;;;;;;;5085391;28;20028;-68
2022/05/21 07:07:43;;;;;;;22.85;3.38;;;;;;;;;;5084186;28;20047;-68
2022/05/21 07:10:10;;;;;;;17.40;3.75;;;;;;;;;;5083884;28;20039;-69
2022/05/21 07:12:36;;;;;;;20.70;3.72;;;;;;;;;;5084620;28;20039;-69
2022/05/21 07:15:04;;;;;;;17.30;3.28;;;;;;;;;;5087892;28;20116;-68
2022/05/21 07:17:30;;;;;;;19.08;3.50;;;;;;;;;;5087403;28;20024;-70
2022/05/21 07:19:56;;;;;;;23.45;4.22;;;;;;;;;;5087646;28;20516;-68
2022/05/21 07:22:22;;;;;;;15.68;3.65;;;;;;;;;;5087373;28;20504;-69
2022/05/21 07:24:49;;;;;;;26.90;4.60;;;;;;;;;;5090219;28;20028;-68
2022/05/21 07:27:16;;;;;;;17.90;2.92;;;;;;;;;;5084359;28;20039;-70
2022/05/21 07:29:42;;;;;;;17.42;3.90;;;;;;;;;;5086319;28;20048;-69
2022/05/21 07:32:22;;;;;;;17.35;3.42;;;;;;;;;;5086428;28;20463;-67
2022/05/21 07:34:49;;;;;;;22.08;4.00;;;;;;;;;;5090287;28;20066;-69
2022/05/21 07:37:15;;;;;;;18.65;3.47;;;;;;;;;;5082774;28;20028;-67
2022/05/21 07:39:41;;;;;;;16.42;3.38;;;;;;;;;;5088644;28;20032;-69
2022/05/21 07:42:07;;;;;;;17.42;3.53;;;;;;;;;;5082179;28;20485;-69
2022/05/21 07:44:34;;;;;;;15.85;3.63;;;;;;;;;;5089498;28;20101;-68
2022/05/21 07:47:00;;;;;;;19.58;3.53;;;;;;;;;;5084446;28;20042;-69
2022/05/21 07:49:26;;;;;;;20.65;3.40;;;;;;;;;;5088005;28;20033;-68
2022/05/21 07:51:52;;;;;;;20.40;4.45;;;;;;;;;;5086821;28;20142;-68
2022/05/21 07:54:18;;;;;;;18.23;3.50;;;;;;;;;;5083356;28;20486;-68
2022/05/21 07:56:44;;;;;;;19.65;4.35;;;;;;;;;;5084797;28;20035;-68
2022/05/21 07:59:10;;;;;;;24.38;3.63;;;;;;;;;;5088746;28;20023;-67
2022/05/21 08:01:36;;;;;;;15.70;3.40;;;;;;;;;;5085327;28;20032;-69
2022/05/21 08:04:02;;;;;;;17.63;4.00;;;;;;;;;;5088670;28;20032;-68
2022/05/21 08:06:28;;;;;;;17.48;3.25;;;;;;;;;;5051783;28;20048;-69
2022/05/21 08:08:54;;;;;;;19.10;3.38;;;;;;;;;;5083373;28;20081;-68
2022/05/21 08:11:21;;;;;;;17.63;3.20;;;;;;;;;;5085693;28;20125;-67
2022/05/21 08:13:47;;;;;;;17.15;4.07;;;;;;;;;;5083433;28;20055;-68
2022/05/21 08:16:14;;;;;;;18.23;3.75;;;;;;;;;;5086086;28;20032;-67
2022/05/21 08:18:40;;;;;;;19.60;4.13;;;;;;;;;;5086296;28;20040;-67
2022/05/21 08:21:06;;;;;;;15.48;3.25;;;;;;;;;;5086665;28;20032;-68
2022/05/21 08:29:02;;;;;;;17.58;3.40;;;;;;;;;;5088612;28;20085;-68
2022/05/21 08:31:28;;;;;;;15.65;3.50;;;;;;;;;;5088595;28;20035;-67
2022/05/21 08:33:55;;;;;;;16.50;4.28;;;;;;;;;;5089759;28;20032;-68
2022/05/21 08:36:20;;;;;;;21.67;3.60;;;;;;;;;;5091879;28;20024;-69
2022/05/21 08:38:47;;;;;;;16.00;3.28;;;;;;;;;;5092682;28;20031;-68
2022/05/21 08:41:19;;;;;;;19.08;4.15;;;;;;;;;;5093000;28;20024;-69
2022/05/21 08:44:03;;;;;;;15.52;3.35;;;;;;;;;;5090182;28;20085;-69
2022/05/21 08:46:44;;;;;;;21.23;3.97;;;;;;;;;;5090493;28;20024;-71
2022/05/21 08:49:13;;;;;;;18.60;3.35;;;;;;;;;;5090808;28;20119;-69
2022/05/21 08:51:45;;;;;;;15.10;3.15;;;;;;;;;;5091910;28;20469;-68
2022/05/21 08:54:12;;;;;;;17.63;3.50;;;;;;;;;;5091994;28;20474;-70
2022/05/21 08:56:38;;;;;;;15.05;3.45;;;;;;;;;;5080264;28;20482;-68
2022/05/21 08:59:05;;;;;;;14.27;2.83;;;;;;;;;;5071529;28;20037;-68
2022/05/21 09:01:33;;;;;;;16.35;2.92;;;;;;;;;;5072318;28;20111;-68
2022/05/21 09:03:59;;;;;;;17.35;3.53;;;;;;;;;;5072080;28;20020;-68
2022/05/21 09:06:27;;;;;;;15.13;3.88;;;;;;;;;;5070183;28;20024;-68
2022/05/21 09:09:12;;;;;;;13.05;3.08;;;;;;;;;;5081943;28;20036;-69
2022/05/21 09:11:47;;;;;;;15.43;3.35;;;;;;;;;;5091658;28;20032;-69
2022/05/21 09:14:16;;;;;;;14.32;3.17;;;;;;;;;;5091871;28;20086;-69
2022/05/21 09:16:55;;;;;;;15.90;2.97;;;;;;;;;;5091851;28;20503;-69
2022/05/21 09:19:23;;;;;;;17.27;3.20;;;;;;;;;;5090724;28;20107;-69
2022/05/21 09:21:50;;;;;;;16.50;3.30;;;;;;;;;;5091707;28;20054;-69
2022/05/21 09:24:34;;;;;;;20.00;3.53;;;;;;;;;;5092280;28;20031;-68
2022/05/21 09:27:00;;;;;;;14.10;2.95;;;;;;;;;;5090054;28;20108;-69
2022/05/21 09:29:28;;;;;;;16.85;3.80;;;;;;;;;;5091868;28;20045;-68
2022/05/21 09:31:56;;;;;;;14.07;3.15;;;;;;;;;;5091479;28;20032;-69
2022/05/21 09:34:27;;;;;;;15.40;3.25;;;;;;;;;;5091954;28;20024;-70
2022/05/21 09:36:53;;;;;;;14.35;3.15;;;;;;;;;;5091631;28;20036;-69
2022/05/21 09:39:32;;;;;;;15.52;3.15;;;;;;;;;;5091926;28;20032;-69
2022/05/21 09:45:24;;;;;;;17.73;3.22;;;;;;;;;;5091103;28;20100;-69
2022/05/21 09:47:53;;;;;;;18.88;3.45;;;;;;;;;;5088492;28;20071;-68
2022/05/21 09:50:25;;;;;;;13.10;3.17;;;;;;;;;;5090034;28;20020;-69
2022/05/21 09:52:51;;;;;;;13.10;2.72;;;;;;;;;;5091829;28;20028;-69
2022/05/21 09:55:20;;;;;;;14.35;3.17;;;;;;;;;;5090180;28;20036;-69
2022/05/21 09:57:46;;;;;;;15.68;3.10;;;;;;;;;;5084690;28;20500;-69
2022/05/21 10:00:12;;;;;;;17.45;3.53;;;;;;;;;;5082527;28;20063;-68
2022/05/21 10:02:41;;;;;;;16.20;3.05;;;;;;;;;;5080915;28;20103;-68
2022/05/21 10:05:08;;;;;;;17.23;3.17;;;;;;;;;;5089831;28;20095;-69
2022/05/21 10:13:12;;;;;;;15.35;3.45;;;;;;;;;;5085479;28;20055;-68
2022/05/21 10:15:42;;;;;;;14.02;3.55;;;;;;;;;;5089981;28;20052;-68
2022/05/21 10:18:08;;;;;;;19.23;3.00;;;;;;;;;;5089642;28;20032;-69
2022/05/21 10:20:44;;;;;;;12.10;2.95;;;;;;;;;;5078417;28;20075;-69
2022/05/21 10:23:20;;;;;;;13.40;4.10;;;;;;;;;;5090690;28;20488;-68
2022/05/21 10:26:01;;;;;;;19.63;3.13;;;;;;;;;;5088704;28;20066;-68
2022/05/21 10:28:36;;;;;;;16.77;3.42;;;;;;;;;;5087034;28;20140;-69
2022/05/21 10:31:24;;;;;;;21.00;5.00;;;;;;;;;;5083767;28;20032;-68
2022/05/21 10:33:53;;;;;;;14.65;2.58;;;;;;;;;;5089056;28;20024;-68
2022/05/21 10:36:32;;;;;;;17.92;3.45;;;;;;;;;;5087255;28;20612;-68
2022/05/21 10:39:21;;;;;;;16.80;2.75;;;;;;;;;;5086520;28;20030;-70
2022/05/21 10:42:00;;;;;;;13.63;3.08;;;;;;;;;;5074029;28;20036;-69
2022/05/21 10:44:52;;;;;;;16.85;3.25;;;;;;;;;;5090649;28;20028;-70
2022/05/21 10:47:24;;;;;;;17.98;3.22;;;;;;;;;;5065710;28;20147;-68
2022/05/21 10:50:01;;;;;;;20.05;3.65;;;;;;;;;;5083469;28;20036;-69
2022/05/21 10:52:27;;;;;;;17.38;3.28;;;;;;;;;;5087046;28;20120;-69
2022/05/21 10:55:03;;;;;;;18.08;3.22;;;;;;;;;;5083914;28;20095;-68
2022/05/21 10:57:47;;;;;;;22.98;3.50;;;;;;;;;;5083882;28;20086;-68
2022/05/21 11:00:25;;;;;;;16.15;3.00;;;;;;;;;;5081600;28;20515;-69
2022/05/21 11:03:04;;;;;;;19.33;3.28;;;;;;;;;;5084391;28;20033;-67
2022/05/21 11:05:47;;;;;;;21.33;3.97;;;;;;;;;;5085247;28;20055;-70
2022/05/21 11:08:13;;;;;;;16.88;3.70;;;;;;;;;;5087070;28;20125;-68
2022/05/21 11:10:43;;;;;;;16.70;3.35;;;;;;;;;;5082562;28;20027;-68
2022/05/21 11:13:09;;;;;;;;;;;;;;;;;;5085020;28;20080;-69
2022/05/21 11:15:50;;;;;;;16.27;3.08;;;;;;;;;;5084141;28;20016;-68
2022/05/21 11:18:39;;;;;;;14.13;3.38;;;;;;;;;;5083130;28;20181;-69
2022/05/21 11:21:21;;;;;;;16.30;3.95;;;;;;;;;;5082186;28;20020;-69
2022/05/21 11:23:53;;;;;;;15.88;3.28;;;;;;;;;;5084734;28;20138;-69
2022/05/21 11:26:37;;;;;;;16.77;4.28;;;;;;;;;;5079484;28;20036;-68
2022/05/21 11:29:18;;;;;;;19.02;3.97;;;;;;;;;;5080431;28;20146;-68
2022/05/21 11:37:23;;;;;;;16.17;3.22;;;;;;;;;;5083072;28;20511;-68
2022/05/21 11:39:50;;;;;;;14.85;2.92;;;;;;;;;;5086548;28;20508;-69
2022/05/21 11:42:17;;;;;;;14.68;2.35;;;;;;;;;;5081365;28;20170;-71
2022/05/21 11:45:06;;;;;;;13.88;3.15;;;;;;;;;;5081362;28;20021;-69
2022/05/21 11:47:36;;;;;;;17.30;3.17;;;;;;;;;;5077087;28;20155;-68
2022/05/21 11:50:07;;;;;;;19.75;2.78;;;;;;;;;;5083356;28;20028;-66
2022/05/21 11:52:33;;;;;;;10.95;2.47;;;;;;;;;;5085242;28;20032;-70
2022/05/21 11:54:59;;;;;;;20.08;2.90;;;;;;;;;;5079878;28;20028;-68
2022/05/21 11:57:48;;;;;;;12.55;2.78;;;;;;;;;;5082882;28;20489;-68
2022/05/21 12:00:26;;;;;;;17.17;2.58;;;;;;;;;;5080008;28;20104;-69
2022/05/21 12:02:54;;;;;;;16.50;2.55;;;;;;;;;;5090418;28;20020;-69
2022/05/21 12:05:37;;;;;;;8.82;2.50;;;;;;;;;;5091614;28;20032;-68
2022/05/21 12:08:10;;;;;;;16.77;2.65;;;;;;;;;;5091179;28;20509;-68
2022/05/21 12:10:58;;;;;;;14.93;2.92;;;;;;;;;;5093729;28;20031;-68
2022/05/21 12:13:33;;;;;;;16.10;3.45;;;;;;;;;;5092865;28;20043;-68
2022/05/21 12:16:20;;;;;;;14.73;3.20;;;;;;;;;;5089201;28;20055;-68
2022/05/21 12:18:51;;;;;;;15.45;2.40;;;;;;;;;;5091355;28;20082;-69
2022/05/21 12:21:17;;;;;;;;;;;;;;;;;;5092066;28;20032;-68
2022/05/21 12:23:43;;;;;;;8.95;2.20;;;;;;;;;;5094019;28;19908;-68
2022/05/21 12:26:19;;;;;;;9.13;2.03;;;;;;;;;;5087145;28;20039;-67
2022/05/21 12:28:51;;;;;;;11.60;2.40;;;;;;;;;;5093403;28;20572;-68
2022/05/21 12:31:25;;;;;;;13.38;2.45;;;;;;;;;;5093797;28;20035;-69
2022/05/21 12:33:55;;;;;;;16.80;2.42;;;;;;;;;;5091127;28;20035;-69
2022/05/21 12:36:29;;;;;;;9.40;2.80;;;;;;;;;;5086825;28;20032;-72
2022/05/21 12:38:55;;;;;;;9.05;2.60;;;;;;;;;;5087818;28;20377;-70
2022/05/21 12:41:30;;;;;;;13.40;2.83;;;;;;;;;;5076740;28;20057;-74
2022/05/21 12:43:56;;;;;;;15.48;2.97;;;;;;;;;;5095828;28;20334;-68
2022/05/21 12:46:29;;;;;;;13.10;2.53;;;;;;;;;;5093333;28;20073;-68
2022/05/21 12:49:01;;;;;;;12.20;2.90;;;;;;;;;;5092580;28;20065;-68
2022/05/21 12:51:30;;;;;;;8.88;2.60;;;;;;;;;;5092717;28;20028;-68
2022/05/21 12:53:56;;;;;;;14.02;2.92;;;;;;;;;;5092897;28;20028;-67
2022/05/21 12:56:26;;;;;;;13.32;3.10;;;;;;;;;;5094337;28;20024;-67
2022/05/21 12:59:06;;;;;;;16.23;3.03;;;;;;;;;;5091482;28;20032;-69
2022/05/21 13:01:34;;;;;;;16.70;3.40;;;;;;;;;;5088271;28;20389;-69
2022/05/21 13:04:00;;;;;;;12.88;3.05;;;;;;;;;;5091666;28;20031;-68
2022/05/21 13:06:32;;;;;;;12.50;3.10;;;;;;;;;;5092258;28;20028;-69
2022/05/21 13:08:59;;;;;;;14.75;3.22;;;;;;;;;;5072940;28;20028;-69
2022/05/21 13:11:36;;;;;;;14.40;3.03;;;;;;;;;;5085163;28;20032;-71
2022/05/21 13:14:08;;;;;;;15.20;3.10;;;;;;;;;;5092333;28;20135;-66
2022/05/21 13:16:34;;;;;;;11.48;2.95;;;;;;;;;;5090484;28;20028;-68
2022/05/21 13:19:06;;;;;;;14.68;2.67;;;;;;;;;;5085980;28;20032;-69
2022/05/21 13:21:56;;;;;;;15.18;3.50;;;;;;;;;;5088234;28;20104;-69
2022/05/21 13:24:40;;;;;;;19.23;3.63;;;;;;;;;;5078933;28;20036;-68
2022/05/21 13:27:13;;;;;;;10.60;2.35;;;;;;;;;;5084103;28;20133;-69
2022/05/21 13:29:40;;;;;;;9.52;2.30;;;;;;;;;;5088919;28;20020;-67
2022/05/21 13:32:16;;;;;;;14.68;3.20;;;;;;;;;;5086734;28;20036;-67
2022/05/21 13:34:42;;;;;;;12.32;2.67;;;;;;;;;;5089673;28;20053;-68
2022/05/21 13:37:08;;;;;;;14.38;2.92;;;;;;;;;;5090955;28;20024;-69
2022/05/21 13:39:35;;;;;;;15.65;3.33;;;;;;;;;;5087268;28;20051;-68
2022/05/21 13:42:06;;;;;;;14.50;3.22;;;;;;;;;;5085779;28;20073;-69
2022/05/21 13:44:35;;;;;;;13.82;2.90;;;;;;;;;;5090980;28;20024;-68
2022/05/21 13:47:03;;;;;;;13.50;3.10;;;;;;;;;;5089135;28;20032;-68
2022/05/21 13:49:29;;;;;;;12.38;3.13;;;;;;;;;;5086234;28;20035;-68
2022/05/21 13:51:55;;;;;;;16.83;3.03;;;;;;;;;;5082816;28;20021;-69
2022/05/21 13:54:25;;;;;;;11.75;3.15;;;;;;;;;;5079815;28;20023;-69
2022/05/21 13:57:01;;;;;;;13.35;2.80;;;;;;;;;;5084362;28;20114;-68
2022/05/21 13:59:27;;;;;;;17.50;2.92;;;;;;;;;;5090116;28;20035;-69
2022/05/21 14:01:56;;;;;;;16.67;3.10;;;;;;;;;;5087959;28;20052;-68
2022/05/21 14:04:34;;;;;;;12.98;3.38;;;;;;;;;;5091054;28;20028;-68
2022/05/21 14:07:01;;;;;;;11.90;2.80;;;;;;;;;;5085341;28;20035;-68
2022/05/21 14:09:29;;;;;;;14.32;2.65;;;;;;;;;;5084158;28;20055;-69
2022/05/21 14:12:00;;;;;;;11.15;2.60;;;;;;;;;;5086111;28;20030;-69
2022/05/21 14:14:29;;;;;;;15.35;2.50;;;;;;;;;;5087308;28;20097;-69
2022/05/21 14:17:14;;;;;;;12.10;2.30;;;;;;;;;;5085094;28;20032;-68
2022/05/21 14:19:40;;;;;;;11.75;2.55;;;;;;;;;;5088874;28;20027;-67
2022/05/21 14:22:06;;;;;;;13.57;2.60;;;;;;;;;;5088604;28;20028;-67
2022/05/21 14:24:34;;;;;;;13.70;3.47;;;;;;;;;;5089409;28;20028;-67
2022/05/21 14:27:03;;;;;;;12.48;3.08;;;;;;;;;;5088343;28;20024;-67
2022/05/21 14:29:35;;;;;;;16.83;2.95;;;;;;;;;;5082611;28;20028;-68
2022/05/21 14:32:11;;;;;;;12.55;2.65;;;;;;;;;;5080125;28;20032;-67
2022/05/21 14:34:37;;;;;;;13.63;3.22;;;;;;;;;;5081146;28;20028;-69
2022/05/21 14:37:03;;;;;;;12.30;2.60;;;;;;;;;;5082847;28;20030;-68
2022/05/21 14:39:29;;;;;;;11.82;3.05;;;;;;;;;;5081210;28;20138;-70
2022/05/21 14:42:00;;;;;;;15.65;3.33;;;;;;;;;;5083452;28;20028;-68
2022/05/21 14:44:27;;;;;;;14.82;2.72;;;;;;;;;;5085200;28;20086;-74
2022/05/21 14:49:38;;;;;;;12.38;3.00;;;;;;;;;;5084993;28;20039;-69
2022/05/21 14:54:53;;;;;;;11.35;2.80;;;;;;;;;;5078565;28;20055;-69
2022/05/21 14:57:19;;;;;;;12.30;2.55;;;;;;;;;;5076927;28;20059;-69
2022/05/21 14:59:45;;;;;;;12.50;2.65;;;;;;;;;;5079295;28;20059;-67
2022/05/21 15:02:16;;;;;;;10.45;2.47;;;;;;;;;;5081933;28;20024;-68
2022/05/21 15:04:42;;;;;;;;;;;;;;;;;;5084430;28;20028;-70
2022/05/21 15:07:13;;;;;;;10.85;2.50;;;;;;;;;;5082384;28;19915;-67
2022/05/21 15:09:40;;;;;;;13.13;2.33;;;;;;;;;;5079572;28;20032;-68
2022/05/21 15:12:06;;;;;;;10.55;2.50;;;;;;;;;;5079650;28;20162;-66
2022/05/21 15:14:37;;;;;;;14.23;2.88;;;;;;;;;;5080840;28;20496;-67
2022/05/21 15:17:04;;;;;;;14.85;3.70;;;;;;;;;;5081390;28;20036;-69
2022/05/21 15:19:30;;;;;;;14.18;3.03;;;;;;;;;;5080775;28;20047;-68